Pagrindinis puslapis
METAR-TAF:

METAR-TAF

Oro uostai :

Colmenar Viejo, Ispanija

platuma: 40-39N, ilguma: 003-44W, Aukštis: -999 m

METAR: trūkstamas

Laikas: 22:37 (21:37 UTC)

Prognozė

Ataskaita buvo paskelbta 4 valandos ir 37 minutes, ne 17:00 UTC
Prognozė galioja nuo 28 metu 18 UTC su 29 metu 03 UTC
Vėjas 5 kt nuo kintamojo kryptimis
Matomumas 10 km arba daugiau
Mažai debesys ne aukštis 4000 ft

TAF: LECV 281700Z 2818/2903 VRB05KT 9999 FEW040

Orai ataskaitas ir orų prognozės (METAR, TAF).

turimą stotys yra geltonos ir raudonos taškus žemėlapyje.

Perkelti pele per norėdami pamatyti stoties vardą.

Tada spustelėkite, norėdami matyti oro stebėjimo ir prognozės.

Norėdami pakeisti žemėlapį: spustelėkite ant žalios mygtukų su juodo kryžiaus žemyn,; žalią mygtuką su brūkšneliu, jei norite nutolinti; arba žalių rodyklių gretimoms žemėlapius.


METAR-TAF: